sensor_id;sensor_type;location;lat;lon;timestamp;temperature;humidity
16253;DHT22;8234;41.480;2.306;2022-10-04T00:05:13;18.50;99.90
16253;DHT22;8234;41.480;2.306;2022-10-04T00:15:22;18.40;99.90
16253;DHT22;8234;41.480;2.306;2022-10-04T00:25:34;18.20;99.90
16253;DHT22;8234;41.480;2.306;2022-10-04T00:35:48;18.20;99.90
16253;DHT22;8234;41.480;2.306;2022-10-04T00:45:55;18.30;99.90
16253;DHT22;8234;41.480;2.306;2022-10-04T00:56:02;18.20;99.90
16253;DHT22;8234;41.480;2.306;2022-10-04T01:06:09;18.30;99.90
16253;DHT22;8234;41.480;2.306;2022-10-04T01:16:17;18.30;99.90
16253;DHT22;8234;41.480;2.306;2022-10-04T01:26:38;18.30;99.90
16253;DHT22;8234;41.480;2.306;2022-10-04T01:36:42;18.60;99.90
16253;DHT22;8234;41.480;2.306;2022-10-04T01:46:52;18.80;99.90
16253;DHT22;8234;41.480;2.306;2022-10-04T01:57:01;19.00;99.90
16253;DHT22;8234;41.480;2.306;2022-10-04T02:07:12;19.00;99.90
16253;DHT22;8234;41.480;2.306;2022-10-04T02:17:19;19.00;99.90
16253;DHT22;8234;41.480;2.306;2022-10-04T02:27:27;19.10;99.90
16253;DHT22;8234;41.480;2.306;2022-10-04T02:37:32;19.20;99.90
16253;DHT22;8234;41.480;2.306;2022-10-04T02:47:43;19.20;99.90
16253;DHT22;8234;41.480;2.306;2022-10-04T02:57:48;19.20;99.90
16253;DHT22;8234;41.480;2.306;2022-10-04T03:07:55;19.00;99.90
16253;DHT22;8234;41.480;2.306;2022-10-04T03:17:59;18.90;99.90
16253;DHT22;8234;41.480;2.306;2022-10-04T03:28:04;18.80;99.90
16253;DHT22;8234;41.480;2.306;2022-10-04T03:38:11;18.80;99.90
16253;DHT22;8234;41.480;2.306;2022-10-04T03:48:24;18.70;99.90
16253;DHT22;8234;41.480;2.306;2022-10-04T03:58:30;18.60;99.90
16253;DHT22;8234;41.480;2.306;2022-10-04T04:08:38;18.50;99.90
16253;DHT22;8234;41.480;2.306;2022-10-04T04:18:44;18.40;99.90
16253;DHT22;8234;41.480;2.306;2022-10-04T04:28:51;18.30;99.90
16253;DHT22;8234;41.480;2.306;2022-10-04T04:39:07;18.20;99.90
16253;DHT22;8234;41.480;2.306;2022-10-04T04:49:30;18.10;99.90
16253;DHT22;8234;41.480;2.306;2022-10-04T04:59:34;18.10;99.90
16253;DHT22;8234;41.480;2.306;2022-10-04T05:09:39;17.90;99.90
16253;DHT22;8234;41.480;2.306;2022-10-04T05:19:43;17.80;99.90
16253;DHT22;8234;41.480;2.306;2022-10-04T05:29:57;17.90;99.90
16253;DHT22;8234;41.480;2.306;2022-10-04T05:40:20;18.10;99.90
16253;DHT22;8234;41.480;2.306;2022-10-04T05:50:32;18.00;99.90
16253;DHT22;8234;41.480;2.306;2022-10-04T06:00:40;18.10;99.90
16253;DHT22;8234;41.480;2.306;2022-10-04T06:11:12;18.20;99.90
16253;DHT22;8234;41.480;2.306;2022-10-04T06:21:19;18.00;99.90
16253;DHT22;8234;41.480;2.306;2022-10-04T06:42:22;18.20;99.90
16253;DHT22;8234;41.480;2.306;2022-10-04T06:52:57;18.50;99.90
16253;DHT22;8234;41.480;2.306;2022-10-04T07:03:13;19.00;99.90
16253;DHT22;8234;41.480;2.306;2022-10-04T07:13:30;19.50;99.90
16253;DHT22;8234;41.480;2.306;2022-10-04T07:23:40;20.00;99.90
16253;DHT22;8234;41.480;2.306;2022-10-04T07:33:49;20.40;99.90
16253;DHT22;8234;41.480;2.306;2022-10-04T07:43:58;20.80;99.90
16253;DHT22;8234;41.480;2.306;2022-10-04T07:54:11;21.10;99.90
16253;DHT22;8234;41.480;2.306;2022-10-04T08:04:29;21.50;99.90
16253;DHT22;8234;41.480;2.306;2022-10-04T08:14:52;22.10;99.90
16253;DHT22;8234;41.480;2.306;2022-10-04T08:25:04;22.40;99.90
16253;DHT22;8234;41.480;2.306;2022-10-04T08:56:37;22.70;99.90
16253;DHT22;8234;41.480;2.306;2022-10-04T09:06:52;22.70;99.90
16253;DHT22;8234;41.480;2.306;2022-10-04T09:17:13;22.90;99.90
16253;DHT22;8234;41.480;2.306;2022-10-04T09:27:36;23.00;99.90
16253;DHT22;8234;41.480;2.306;2022-10-04T09:48:49;23.40;99.90
16253;DHT22;8234;41.480;2.306;2022-10-04T10:09:44;23.90;99.90
16253;DHT22;8234;41.480;2.306;2022-10-04T10:20:39;24.00;99.90
16253;DHT22;8234;41.480;2.306;2022-10-04T10:30:59;24.80;99.90
16253;DHT22;8234;41.480;2.306;2022-10-04T10:41:38;25.00;99.90
16253;DHT22;8234;41.480;2.306;2022-10-04T10:52:03;25.30;99.90
16253;DHT22;8234;41.480;2.306;2022-10-04T11:02:32;25.50;99.90
16253;DHT22;8234;41.480;2.306;2022-10-04T11:13:11;26.50;99.90
16253;DHT22;8234;41.480;2.306;2022-10-04T11:23:58;27.00;99.90
16253;DHT22;8234;41.480;2.306;2022-10-04T11:34:32;27.10;99.90
16253;DHT22;8234;41.480;2.306;2022-10-04T11:55:50;27.80;99.90
16253;DHT22;8234;41.480;2.306;2022-10-04T12:06:13;27.90;99.90
16253;DHT22;8234;41.480;2.306;2022-10-04T12:16:49;27.80;99.90
16253;DHT22;8234;41.480;2.306;2022-10-04T12:48:49;27.90;99.90
16253;DHT22;8234;41.480;2.306;2022-10-04T13:09:43;28.60;99.90
16253;DHT22;8234;41.480;2.306;2022-10-04T13:20:29;29.20;99.90
16253;DHT22;8234;41.480;2.306;2022-10-04T13:30:43;29.90;99.90
16253;DHT22;8234;41.480;2.306;2022-10-04T13:41:01;28.80;99.90
16253;DHT22;8234;41.480;2.306;2022-10-04T13:51:25;29.10;99.90
16253;DHT22;8234;41.480;2.306;2022-10-04T14:12:35;29.30;99.90
16253;DHT22;8234;41.480;2.306;2022-10-04T14:22:54;28.40;99.90
16253;DHT22;8234;41.480;2.306;2022-10-04T14:33:33;29.80;99.90
16253;DHT22;8234;41.480;2.306;2022-10-04T14:44:22;29.70;99.90
16253;DHT22;8234;41.480;2.306;2022-10-04T14:54:39;29.40;99.90
16253;DHT22;8234;41.480;2.306;2022-10-04T15:05:04;30.00;99.90
16253;DHT22;8234;41.480;2.306;2022-10-04T15:25:46;29.70;99.90
16253;DHT22;8234;41.480;2.306;2022-10-04T15:36:08;28.90;99.90
16253;DHT22;8234;41.480;2.306;2022-10-04T15:46:41;27.40;99.90
16253;DHT22;8234;41.480;2.306;2022-10-04T15:56:53;27.00;99.90
16253;DHT22;8234;41.480;2.306;2022-10-04T16:07:07;26.00;99.90
16253;DHT22;8234;41.480;2.306;2022-10-04T16:17:40;24.60;99.90
16253;DHT22;8234;41.480;2.306;2022-10-04T16:28:04;24.20;99.90
16253;DHT22;8234;41.480;2.306;2022-10-04T16:38:22;24.20;99.90
16253;DHT22;8234;41.480;2.306;2022-10-04T16:48:36;23.70;99.90
16253;DHT22;8234;41.480;2.306;2022-10-04T16:58:44;23.60;99.90
16253;DHT22;8234;41.480;2.306;2022-10-04T17:09:06;23.30;99.90
16253;DHT22;8234;41.480;2.306;2022-10-04T17:19:29;23.00;99.90
16253;DHT22;8234;41.480;2.306;2022-10-04T17:29:56;22.90;99.90
16253;DHT22;8234;41.480;2.306;2022-10-04T17:40:24;22.70;99.90
16253;DHT22;8234;41.480;2.306;2022-10-04T17:50:36;22.70;99.90
16253;DHT22;8234;41.480;2.306;2022-10-04T18:01:03;22.50;99.90
16253;DHT22;8234;41.480;2.306;2022-10-04T18:11:19;22.50;99.90
16253;DHT22;8234;41.480;2.306;2022-10-04T18:21:27;22.20;99.90
16253;DHT22;8234;41.480;2.306;2022-10-04T18:31:41;21.90;99.90
16253;DHT22;8234;41.480;2.306;2022-10-04T18:41:59;21.00;99.90
16253;DHT22;8234;41.480;2.306;2022-10-04T18:52:15;20.80;99.90
16253;DHT22;8234;41.480;2.306;2022-10-04T19:02:28;20.50;99.90
16253;DHT22;8234;41.480;2.306;2022-10-04T19:12:45;20.50;99.90
16253;DHT22;8234;41.480;2.306;2022-10-04T19:22:57;20.20;99.90
16253;DHT22;8234;41.480;2.306;2022-10-04T19:33:15;20.10;99.90
16253;DHT22;8234;41.480;2.306;2022-10-04T19:43:26;19.90;99.90
16253;DHT22;8234;41.480;2.306;2022-10-04T19:53:40;19.80;99.90
16253;DHT22;8234;41.480;2.306;2022-10-04T20:03:46;19.60;99.90
16253;DHT22;8234;41.480;2.306;2022-10-04T20:24:57;19.20;99.90
16253;DHT22;8234;41.480;2.306;2022-10-04T20:35:01;19.10;99.90
16253;DHT22;8234;41.480;2.306;2022-10-04T20:45:25;19.20;99.90
16253;DHT22;8234;41.480;2.306;2022-10-04T20:55:31;19.10;99.90
16253;DHT22;8234;41.480;2.306;2022-10-04T21:05:38;18.90;99.90
16253;DHT22;8234;41.480;2.306;2022-10-04T21:15:54;18.80;99.90
16253;DHT22;8234;41.480;2.306;2022-10-04T21:26:20;18.80;99.90
16253;DHT22;8234;41.480;2.306;2022-10-04T21:36:24;18.80;99.90
16253;DHT22;8234;41.480;2.306;2022-10-04T21:46:29;18.80;99.90
16253;DHT22;8234;41.480;2.306;2022-10-04T21:56:33;19.10;99.90
16253;DHT22;8234;41.480;2.306;2022-10-04T22:06:38;19.00;99.90
16253;DHT22;8234;41.480;2.306;2022-10-04T22:16:42;18.90;99.90
16253;DHT22;8234;41.480;2.306;2022-10-04T22:26:48;18.80;99.90
16253;DHT22;8234;41.480;2.306;2022-10-04T22:36:52;18.80;99.90
16253;DHT22;8234;41.480;2.306;2022-10-04T22:46:59;18.80;99.90
16253;DHT22;8234;41.480;2.306;2022-10-04T22:57:03;19.10;99.90
16253;DHT22;8234;41.480;2.306;2022-10-04T23:07:08;19.10;99.90
16253;DHT22;8234;41.480;2.306;2022-10-04T23:17:20;19.00;99.90
16253;DHT22;8234;41.480;2.306;2022-10-04T23:27:26;19.10;99.90
16253;DHT22;8234;41.480;2.306;2022-10-04T23:37:31;18.90;99.90
16253;DHT22;8234;41.480;2.306;2022-10-04T23:47:36;18.70;99.90
16253;DHT22;8234;41.480;2.306;2022-10-04T23:57:40;18.50;99.90
